Geneva, Switzerland
Current Conditions -  °F | °C
As of 11:20 AM on Saturday 25 Oct 2014 (Local Time) from LSGG Reporting Station
Broken Clouds Broken Clouds  
Wind Chill: 52°   Ceiling: 9000
Heat Index: 52°   Visibility: 6mi
Dew Point: 46°   Wind: 1mph
Humidity: 82%   Direction: 290°WNW
Pressure: 30.15"   Gusts: NA
Location:  46.21°N, 6.14°E
Report Text: LSGG 250920Z 29001KT 9999 SCT060 BKN090 11/08 Q1021 NOSIG
Loading
Personal Weather Stations






























Interactive Weather Map
Tropical Storm Tracking
New forecast layout! Learn more

10-Day Weather Forecast

Advertisements
Track Severe Weather on mobile